Time;durP1;ratioP1;P1;durP2;ratioP2;P2;SDS_P1;SDS_P2;PMS_P1;PMS_P2;Temp;Humidity;BMP_temperature;BMP_pressure;BME280_temperature;BME280_humidity;BME280_pressure;Samples;Min_cycle;Max_cycle;Signal;HPM_P1;HPM_P2
2021/03/12 00:00:34;;;;;;;6.45;4.15;;;2.60;31.80;;;;;;5075066;28;20094;-76
2021/03/12 00:03:15;;;;;;;5.97;3.47;;;2.60;31.80;;;;;;5074983;28;20572;-77
2021/03/12 00:05:50;;;;;;;6.50;4.15;;;2.70;31.70;;;;;;5056934;28;20036;-76
2021/03/12 00:08:17;;;;;;;6.15;3.80;;;2.70;31.70;;;;;;5074835;28;20043;-77
2021/03/12 00:10:43;;;;;;;5.53;4.00;;;2.60;31.70;;;;;;5072776;28;20033;-76
2021/03/12 00:13:10;;;;;;;8.02;4.05;;;2.60;31.70;;;;;;5074542;28;20565;-76
2021/03/12 00:15:37;;;;;;;6.55;4.00;;;2.50;31.70;;;;;;5056916;28;20082;-75
2021/03/12 00:18:04;;;;;;;7.10;4.50;;;2.60;31.80;;;;;;5074310;28;20033;-76
2021/03/12 00:20:36;;;;;;;5.15;3.95;;;2.60;31.80;;;;;;5072912;28;20064;-75
2021/03/12 00:23:03;;;;;;;6.95;4.00;;;2.60;31.80;;;;;;5074540;28;20051;-75
2021/03/12 00:25:44;;;;;;;7.72;3.90;;;2.60;31.70;;;;;;5089957;28;20090;-75
2021/03/12 00:28:13;;;;;;;4.60;3.67;;;2.50;31.60;;;;;;5073716;28;20028;-75
2021/03/12 00:30:41;;;;;;;7.38;4.35;;;2.50;31.70;;;;;;5072827;28;20020;-75
2021/03/12 00:33:08;;;;;;;7.40;3.63;;;2.60;31.60;;;;;;5089549;28;20041;-75
2021/03/12 00:35:39;;;;;;;7.90;4.15;;;2.60;31.60;;;;;;5072705;28;20110;-75
2021/03/12 00:38:05;;;;;;;7.50;4.45;;;2.60;31.50;;;;;;5074077;28;20040;-75
2021/03/12 00:40:41;;;;;;;5.90;3.97;;;2.60;31.50;;;;;;5072419;28;20036;-74
2021/03/12 00:43:07;;;;;;;6.97;3.92;;;2.50;31.50;;;;;;5089809;28;20473;-74
2021/03/12 00:45:37;;;;;;;7.75;4.13;;;2.50;31.50;;;;;;5073730;28;20036;-75
2021/03/12 00:48:11;;;;;;;6.95;4.28;;;2.50;31.70;;;;;;5057021;28;20036;-74
2021/03/12 00:50:38;;;;;;;7.78;3.90;;;2.50;31.60;;;;;;5074530;28;20119;-77
2021/03/12 00:53:05;;;;;;;5.72;4.13;;;2.40;32.10;;;;;;5055400;28;20040;-75
2021/03/12 00:55:32;;;;;;;6.63;4.10;;;2.40;31.50;;;;;;5071855;28;20060;-74
2021/03/12 00:57:59;;;;;;;10.10;4.18;;;2.40;31.50;;;;;;5073606;28;20045;-74
2021/03/12 01:00:30;;;;;;;6.32;4.10;;;2.40;31.50;;;;;;5072094;28;20413;-74
2021/03/12 01:03:03;;;;;;;6.95;3.88;;;2.40;31.40;;;;;;5089184;28;20036;-74
2021/03/12 01:05:30;;;;;;;5.78;4.35;;;2.40;31.50;;;;;;5072394;28;20055;-74
2021/03/12 01:07:57;;;;;;;7.20;4.28;;;2.40;31.40;;;;;;5055868;28;20036;-77
2021/03/12 01:10:27;;;;;;;6.05;3.90;;;2.40;31.40;;;;;;5072675;28;20462;-76
2021/03/12 01:12:57;;;;;;;6.85;4.57;;;2.40;31.40;;;;;;5088866;28;20480;-76
2021/03/12 01:15:26;;;;;;;6.13;3.90;;;2.50;31.40;;;;;;5072053;28;20039;-76
2021/03/12 01:17:54;;;;;;;6.65;4.00;;;2.50;31.40;;;;;;5089081;28;20040;-77
2021/03/12 01:20:34;;;;;;;4.93;3.45;;;2.40;31.40;;;;;;5073011;28;20032;-76
2021/03/12 01:23:02;;;;;;;8.75;3.92;;;2.40;31.40;;;;;;5055440;28;20044;-76
2021/03/12 01:25:39;;;;;;;6.68;4.60;;;2.30;31.50;;;;;;5055457;28;20036;-76
2021/03/12 01:28:06;;;;;;;4.72;3.97;;;2.40;32.20;;;;;;5072898;28;20055;-76
2021/03/12 01:30:38;;;;;;;6.60;3.88;;;2.40;31.60;;;;;;5088826;28;20033;-76
2021/03/12 01:33:22;;;;;;;8.18;4.38;;;2.30;31.50;;;;;;5088836;28;20040;-75
2021/03/12 01:35:49;;;;;;;6.05;4.00;;;2.30;31.80;;;;;;5071984;28;20093;-75
2021/03/12 01:38:15;;;;;;;6.47;4.00;;;2.30;31.60;;;;;;5071345;28;20166;-76
2021/03/12 01:40:47;;;;;;;5.45;3.65;;;2.30;31.60;;;;;;5072961;28;20051;-75
2021/03/12 01:43:15;;;;;;;7.10;4.50;;;2.40;31.50;;;;;;5071755;28;20123;-74
2021/03/12 01:45:51;;;;;;;6.75;4.43;;;2.30;31.40;;;;;;5072076;28;20044;-75
2021/03/12 01:48:25;;;;;;;7.30;4.20;;;2.30;31.50;;;;;;5055778;28;20037;-75
2021/03/12 01:50:56;;;;;;;8.77;4.40;;;2.30;31.50;;;;;;5088362;28;20455;-74
2021/03/12 01:53:23;;;;;;;6.93;4.03;;;2.30;31.50;;;;;;5087924;28;20496;-76
2021/03/12 01:55:52;;;;;;;8.15;4.32;;;2.30;31.50;;;;;;5053257;28;20029;-76
2021/03/12 01:58:19;;;;;;;6.63;4.45;;;2.20;31.50;;;;;;5088260;28;20086;-77
2021/03/12 02:00:49;;;;;;;8.05;4.57;;;2.40;31.60;;;;;;5071393;28;20078;-76
2021/03/12 02:03:29;;;;;;;7.68;4.25;;;2.30;31.40;;;;;;5056137;28;20500;-76
2021/03/12 02:06:24;;;;;;;7.05;4.65;;;2.20;31.40;;;;;;5062689;28;20044;-75
2021/03/12 02:08:54;;;;;;;7.70;4.15;;;2.20;31.40;;;;;;5055213;28;20032;-73
2021/03/12 02:11:33;;;;;;;6.53;4.13;;;2.20;31.50;;;;;;5071116;28;20424;-74
2021/03/12 02:14:09;;;;;;;8.75;4.25;;;2.20;31.50;;;;;;5054318;28;20504;-74
2021/03/12 02:16:43;;;;;;;8.48;5.20;;;2.20;31.50;;;;;;5054460;28;20043;-74
2021/03/12 02:19:50;;;;;;;8.98;4.50;;;2.20;31.50;;;;;;5071082;28;20040;-74
2021/03/12 02:22:19;;;;;;;8.77;5.25;;;2.30;31.50;;;;;;5071418;28;20051;-74
2021/03/12 02:24:55;;;;;;;9.77;5.25;;;2.20;31.40;;;;;;5054657;28;20094;-75
2021/03/12 02:27:36;;;;;;;8.50;5.40;;;2.20;31.50;;;;;;5056337;28;20024;-74
2021/03/12 02:30:06;;;;;;;8.50;5.03;;;2.20;31.40;;;;;;5070898;28;20032;-74
2021/03/12 02:32:43;;;;;;;10.60;5.22;;;2.10;31.30;;;;;;5070979;28;20044;-74
2021/03/12 02:35:18;;;;;;;9.38;4.90;;;2.20;31.40;;;;;;5075313;28;20029;-74
2021/03/12 02:37:48;;;;;;;8.38;4.78;;;2.10;31.30;;;;;;5075011;28;20060;-74
2021/03/12 02:40:18;;;;;;;10.23;5.30;;;2.20;31.50;;;;;;5075022;28;20142;-74
2021/03/12 02:42:51;;;;;;;;;;;2.20;31.50;;;;;;5075391;28;20041;-74
2021/03/12 02:45:20;;;;;;;10.23;4.78;;;2.20;31.40;;;;;;5076196;28;19919;-73
2021/03/12 02:47:52;;;;;;;8.07;5.03;;;2.10;31.40;;;;;;5074852;28;20047;-73
2021/03/12 02:50:23;;;;;;;8.55;5.13;;;2.20;31.40;;;;;;5059057;28;20028;-74
2021/03/12 02:52:53;;;;;;;8.82;4.40;;;2.10;31.40;;;;;;5074627;28;20044;-73
2021/03/12 02:55:24;;;;;;;8.95;5.03;;;2.10;31.60;;;;;;5059068;28;20039;-73
2021/03/12 02:57:56;;;;;;;9.98;4.38;;;2.10;31.60;;;;;;5058461;28;20127;-74
2021/03/12 03:00:23;;;;;;;10.15;4.30;;;2.10;31.60;;;;;;5074590;28;20151;-74
2021/03/12 03:03:06;;;;;;;8.18;4.80;;;2.20;31.60;;;;;;5075873;28;20043;-74
2021/03/12 03:05:45;;;;;;;8.35;4.75;;;2.10;31.60;;;;;;5059387;28;20044;-74
2021/03/12 03:08:12;;;;;;;6.35;4.10;;;2.20;31.60;;;;;;5057440;28;20055;-76
2021/03/12 03:10:40;;;;;;;7.53;4.55;;;2.20;31.50;;;;;;5074244;28;20028;-75
2021/03/12 03:13:08;;;;;;;8.63;4.15;;;2.20;31.50;;;;;;5074507;28;20044;-76
2021/03/12 03:15:35;;;;;;;8.07;4.38;;;2.10;31.50;;;;;;5073105;28;20052;-76
2021/03/12 03:18:05;;;;;;;7.85;4.32;;;2.20;31.50;;;;;;5090215;28;20064;-76
2021/03/12 03:20:38;;;;;;;7.13;4.37;;;2.10;31.50;;;;;;5070726;28;20373;-78
2021/03/12 03:23:04;;;;;;;6.45;4.32;;;2.10;31.40;;;;;;5071966;28;20032;-77
2021/03/12 03:25:30;;;;;;;9.20;4.20;;;2.20;31.50;;;;;;5071956;28;20055;-77
2021/03/12 03:27:56;;;;;;;8.13;5.13;;;2.20;31.40;;;;;;5087799;28;20443;-74
2021/03/12 03:30:25;;;;;;;8.25;4.30;;;2.10;31.50;;;;;;5087638;28;20075;-74
2021/03/12 03:33:00;;;;;;;6.90;4.28;;;2.20;31.50;;;;;;5067383;28;20103;-75
2021/03/12 03:35:29;;;;;;;7.55;4.28;;;2.10;31.50;;;;;;5086987;28;20097;-74
2021/03/12 03:37:55;;;;;;;6.75;4.38;;;2.10;31.60;;;;;;5087322;28;20511;-74
2021/03/12 03:40:21;;;;;;;6.68;3.83;;;2.10;31.50;;;;;;5055457;28;20056;-76
2021/03/12 03:42:49;;;;;;;7.03;4.43;;;2.10;31.60;;;;;;5037159;28;20131;-74
2021/03/12 03:45:18;;;;;;;7.47;4.25;;;2.10;32.20;;;;;;5053614;28;20055;-74
2021/03/12 03:47:51;;;;;;;7.63;4.55;;;2.00;31.50;;;;;;5053663;28;20036;-72
2021/03/12 03:50:19;;;;;;;6.22;4.55;;;2.10;31.60;;;;;;5053559;28;20095;-72
2021/03/12 03:52:46;;;;;;;6.28;4.28;;;2.00;31.60;;;;;;5053457;28;20048;-70
2021/03/12 03:55:18;;;;;;;8.10;4.55;;;2.00;31.60;;;;;;5062262;28;20042;-71
2021/03/12 03:57:45;;;;;;;8.75;4.60;;;2.10;31.60;;;;;;5073017;28;20500;-72
2021/03/12 04:00:14;;;;;;;8.10;4.50;;;2.10;31.50;;;;;;5056764;28;20033;-71
2021/03/12 04:02:48;;;;;;;8.75;4.00;;;2.10;31.60;;;;;;5055116;28;20035;-76
2021/03/12 04:05:21;;;;;;;5.68;4.20;;;2.10;31.60;;;;;;5067610;28;20032;-70
2021/03/12 04:07:54;;;;;;;7.40;4.05;;;2.10;31.50;;;;;;5063907;28;20056;-71
2021/03/12 04:10:21;;;;;;;5.72;4.13;;;2.20;31.50;;;;;;5078501;28;20036;-74
2021/03/12 04:12:49;;;;;;;5.53;3.80;;;2.20;31.50;;;;;;5077241;28;20144;-75
2021/03/12 04:15:18;;;;;;;8.75;4.55;;;2.20;31.50;;;;;;5077038;28;20033;-76
2021/03/12 04:17:44;;;;;;;7.88;4.20;;;2.20;31.40;;;;;;5078749;28;21378;-74
2021/03/12 04:20:12;;;;;;;6.55;4.45;;;2.20;31.50;;;;;;5081978;28;20032;-74
2021/03/12 04:22:39;;;;;;;6.68;4.20;;;2.20;31.50;;;;;;5072818;28;20063;-74
2021/03/12 04:25:08;;;;;;;6.72;4.15;;;2.20;31.50;;;;;;5073999;28;20052;-72
2021/03/12 04:27:35;;;;;;;6.70;3.80;;;2.20;31.50;;;;;;5056101;28;20046;-74
2021/03/12 04:30:06;;;;;;;7.50;4.32;;;2.20;31.60;;;;;;5056232;28;20097;-74
2021/03/12 04:32:33;;;;;;;8.10;3.67;;;2.20;31.60;;;;;;5054143;28;20472;-71
2021/03/12 04:35:00;;;;;;;7.32;3.97;;;2.20;31.70;;;;;;5063706;28;20056;-71
2021/03/12 04:37:27;;;;;;;8.15;4.32;;;2.20;31.60;;;;;;5055346;28;20090;-75
2021/03/12 04:39:54;;;;;;;6.10;3.97;;;2.30;31.70;;;;;;5072560;28;20043;-70
2021/03/12 04:42:23;;;;;;;7.05;3.92;;;2.30;31.70;;;;;;5055943;28;20553;-70
2021/03/12 04:44:50;;;;;;;7.03;3.75;;;2.40;31.60;;;;;;5070700;28;20052;-70
2021/03/12 04:47:16;;;;;;;8.02;4.55;;;2.50;31.50;;;;;;5054683;28;20105;-71
2021/03/12 04:49:46;;;;;;;9.50;4.43;;;2.40;31.50;;;;;;5072026;28;20032;-70
2021/03/12 04:52:13;;;;;;;6.53;3.97;;;2.40;31.50;;;;;;5071193;28;20045;-71
2021/03/12 04:54:40;;;;;;;7.28;4.18;;;2.50;31.50;;;;;;5073587;28;20036;-71
2021/03/12 04:57:06;;;;;;;10.32;5.55;;;2.40;31.40;;;;;;5087888;28;20075;-71
2021/03/12 04:59:35;;;;;;;7.00;4.18;;;2.50;31.50;;;;;;5055869;28;20504;-71
2021/03/12 05:02:02;;;;;;;8.15;4.75;;;2.50;31.40;;;;;;5073252;28;20036;-70
2021/03/12 05:04:29;;;;;;;7.60;4.35;;;2.50;31.40;;;;;;5073140;28;20036;-70
2021/03/12 05:06:59;;;;;;;7.78;4.45;;;2.60;31.30;;;;;;5088734;28;20028;-72
2021/03/12 05:09:45;;;;;;;7.15;4.40;;;2.70;31.90;;;;;;5131169;27;20290;-64
2021/03/12 05:12:17;;;;;;;7.82;4.00;;;3.00;56.60;;;;;;5112447;28;20096;-70
2021/03/12 05:14:44;;;;;;;10.07;4.13;;;3.20;54.50;;;;;;5095398;28;20039;-75
2021/03/12 05:17:11;;;;;;;7.72;3.65;;;3.20;50.20;;;;;;5112419;28;20460;-73
2021/03/12 05:19:38;;;;;;;9.77;4.28;;;3.10;48.90;;;;;;5112370;28;20114;-74
2021/03/12 05:22:04;;;;;;;9.32;4.22;;;3.00;48.50;;;;;;5130410;28;20020;-72
2021/03/12 05:24:34;;;;;;;6.55;4.07;;;2.90;48.00;;;;;;5112136;28;20433;-71
2021/03/12 05:27:00;;;;;;;7.20;4.47;;;2.90;48.00;;;;;;5112243;28;20383;-75
2021/03/12 05:29:31;;;;;;;8.52;4.50;;;2.90;47.50;;;;;;5112188;28;20042;-79
2021/03/12 05:32:01;;;;;;;8.00;4.00;;;3.00;47.60;;;;;;5112099;28;20024;-72
2021/03/12 05:34:29;;;;;;;9.43;4.55;;;3.00;48.40;;;;;;5111992;28;20351;-71
2021/03/12 05:36:56;;;;;;;9.77;4.80;;;3.10;47.10;;;;;;5111681;28;20019;-70
2021/03/12 05:39:24;;;;;;;8.88;5.00;;;3.30;46.70;;;;;;5112224;28;20023;-72
2021/03/12 05:41:51;;;;;;;7.30;4.47;;;3.50;46.40;;;;;;5112005;28;20031;-72
2021/03/12 05:44:22;;;;;;;8.05;4.65;;;3.80;46.20;;;;;;5111973;28;20023;-71
2021/03/12 05:46:50;;;;;;;9.10;4.85;;;4.10;45.30;;;;;;5111860;28;20027;-72
2021/03/12 05:49:18;;;;;;;8.18;4.55;;;4.50;44.70;;;;;;5111651;28;20435;-72
2021/03/12 05:51:45;;;;;;;9.27;4.30;;;4.90;44.30;;;;;;5111695;28;20031;-72
2021/03/12 05:54:11;;;;;;;8.07;4.18;;;5.30;43.70;;;;;;5130178;28;20524;-72
2021/03/12 05:56:40;;;;;;;8.43;4.75;;;5.70;43.10;;;;;;5111639;28;20031;-71
2021/03/12 05:59:08;;;;;;;10.95;5.03;;;6.10;42.10;;;;;;5130023;28;20034;-71
2021/03/12 06:01:34;;;;;;;6.93;4.90;;;6.50;41.30;;;;;;5129743;28;20110;-73
2021/03/12 06:04:00;;;;;;;8.32;4.50;;;6.80;40.70;;;;;;5111804;28;20023;-70
2021/03/12 06:06:29;;;;;;;6.88;4.70;;;7.20;40.30;;;;;;5129493;28;20036;-72
2021/03/12 06:08:55;;;;;;;8.10;4.80;;;7.50;39.90;;;;;;5130063;28;20486;-73
2021/03/12 06:11:22;;;;;;;10.10;5.15;;;7.90;39.60;;;;;;5130184;28;20375;-72
2021/03/12 06:13:52;;;;;;;7.47;3.83;;;8.10;38.90;;;;;;5111691;28;20031;-62
2021/03/12 06:16:50;;;;;;;6.68;4.13;;;8.60;41.90;;;;;;5094918;28;20088;-60
2021/03/12 06:19:22;;;;;;;7.32;4.72;;;9.00;39.70;;;;;;5107949;28;20019;-62
2021/03/12 06:22:07;;;;;;;10.73;5.63;;;9.30;38.20;;;;;;5097952;28;20061;-62
2021/03/12 06:24:34;;;;;;;7.47;4.78;;;9.50;36.80;;;;;;5116116;28;20024;-64
2021/03/12 06:27:28;;;;;;;7.53;4.70;;;9.60;36.00;;;;;;5090209;28;20082;-62
2021/03/12 06:30:08;;;;;;;10.38;4.75;;;9.70;35.20;;;;;;5116405;28;20408;-62
2021/03/12 06:33:01;;;;;;;9.43;5.20;;;9.80;34.70;;;;;;5097534;28;20065;-61
2021/03/12 06:35:38;;;;;;;9.60;5.18;;;9.90;34.30;;;;;;5097849;28;20122;-61
2021/03/12 06:38:23;;;;;;;10.75;5.63;;;9.90;33.90;;;;;;5097362;28;20341;-60
2021/03/12 06:41:37;;;;;;;9.13;5.47;;;9.90;33.70;;;;;;5097256;28;20024;-62
2021/03/12 06:44:31;;;;;;;8.75;5.85;;;9.90;33.10;;;;;;5115568;28;20456;-61
2021/03/12 06:46:59;;;;;;;9.20;5.95;;;9.90;32.90;;;;;;5097649;28;20034;-61
2021/03/12 06:49:26;;;;;;;7.63;5.07;;;9.90;33.10;;;;;;5096895;28;20038;-60
2021/03/12 06:52:15;;;;;;;9.48;5.82;;;9.90;32.90;;;;;;5104414;28;20052;-60
2021/03/12 06:54:54;;;;;;;7.88;5.05;;;9.90;32.80;;;;;;5097502;28;20118;-59
2021/03/12 06:57:26;;;;;;;8.57;5.78;;;9.80;32.50;;;;;;5096783;28;20471;-58
2021/03/12 07:00:08;;;;;;;7.68;5.40;;;9.80;32.30;;;;;;5097142;28;20027;-59
2021/03/12 07:02:40;;;;;;;8.95;5.60;;;9.80;32.30;;;;;;5115043;28;20031;-59
2021/03/12 07:05:13;;;;;;;7.60;5.35;;;9.70;32.20;;;;;;5096706;28;20031;-58
2021/03/12 07:07:51;;;;;;;9.63;5.57;;;9.70;32.40;;;;;;5096720;28;20048;-59
2021/03/12 07:10:40;;;;;;;8.70;5.68;;;9.70;32.40;;;;;;5096595;28;20020;-59
2021/03/12 07:13:26;;;;;;;7.55;5.18;;;9.70;32.30;;;;;;5096796;28;20031;-61
2021/03/12 07:16:01;;;;;;;9.73;5.50;;;9.80;32.30;;;;;;5115464;28;20019;-61
2021/03/12 07:18:35;;;;;;;6.82;5.10;;;9.80;32.20;;;;;;5096659;28;20032;-61
2021/03/12 07:21:06;;;;;;;9.80;4.57;;;9.90;32.10;;;;;;5096634;28;20110;-62
2021/03/12 07:23:37;;;;;;;10.05;5.95;;;9.90;32.10;;;;;;5096194;28;20030;-61
2021/03/12 07:26:05;;;;;;;9.60;6.03;;;9.90;32.10;;;;;;5115002;28;20034;-61
2021/03/12 07:28:34;;;;;;;9.43;5.53;;;9.90;31.90;;;;;;5096084;28;20031;-60
2021/03/12 07:31:37;;;;;;;8.15;5.25;;;9.90;31.90;;;;;;5094943;28;20020;-60
2021/03/12 07:34:18;;;;;;;9.48;6.05;;;10.00;31.90;;;;;;5096643;28;20031;-61
2021/03/12 07:36:49;;;;;;;9.57;5.95;;;10.00;31.80;;;;;;5096409;28;20024;-60
2021/03/12 07:39:21;;;;;;;10.15;5.70;;;10.00;31.70;;;;;;5095966;28;20080;-60
2021/03/12 07:41:48;;;;;;;9.50;5.80;;;10.00;31.70;;;;;;5096392;28;20190;-60
2021/03/12 07:44:34;;;;;;;9.57;6.35;;;10.00;31.80;;;;;;5114430;28;20123;-59
2021/03/12 07:47:27;;;;;;;8.88;5.57;;;10.00;31.60;;;;;;5096148;28;20122;-59
2021/03/12 07:49:53;;;;;;;9.43;6.05;;;10.00;31.80;;;;;;5114338;28;20042;-61
2021/03/12 07:52:49;;;;;;;10.68;5.80;;;10.00;31.80;;;;;;5095807;28;20030;-61
2021/03/12 07:55:35;;;;;;;11.73;6.10;;;10.00;31.70;;;;;;5095995;28;20031;-61
2021/03/12 07:58:09;;;;;;;9.98;6.00;;;10.00;31.80;;;;;;5095867;28;20035;-62
2021/03/12 08:00:57;;;;;;;8.32;5.55;;;10.00;31.80;;;;;;5113298;28;20046;-62
2021/03/12 08:03:35;;;;;;;10.87;5.70;;;10.00;31.70;;;;;;5114156;28;20023;-62
2021/03/12 08:06:17;;;;;;;9.93;6.57;;;10.00;31.80;;;;;;5079537;28;20648;-63
2021/03/12 08:09:02;;;;;;;9.98;5.93;;;9.90;31.50;;;;;;5114231;28;20120;-63
2021/03/12 08:11:53;;;;;;;9.68;6.00;;;9.90;31.60;;;;;;5095951;28;20489;-64
2021/03/12 08:15:11;;;;;;;8.45;5.70;;;9.90;31.70;;;;;;5097004;28;20147;-63
2021/03/12 08:17:37;;;;;;;11.85;6.60;;;9.80;31.70;;;;;;5095362;28;20034;-63
2021/03/12 08:20:29;;;;;;;9.82;6.13;;;9.80;31.90;;;;;;5095869;28;20052;-64
2021/03/12 08:23:32;;;;;;;8.40;5.63;;;9.70;31.90;;;;;;5113448;28;20036;-64
2021/03/12 08:25:59;;;;;;;13.45;6.00;;;9.70;32.30;;;;;;5095282;28;20036;-71
2021/03/12 08:28:44;;;;;;;9.93;6.38;;;9.70;33.00;;;;;;5095524;28;20110;-70
2021/03/12 08:31:39;;;;;;;8.90;5.78;;;9.60;33.00;;;;;;5079969;28;20023;-70
2021/03/12 08:34:41;;;;;;;8.85;6.05;;;9.60;32.90;;;;;;5113509;28;20031;-69
2021/03/12 08:37:25;;;;;;;9.43;6.53;;;9.60;32.40;;;;;;5113783;28;20038;-70
2021/03/12 08:40:15;;;;;;;7.45;5.50;;;9.60;32.40;;;;;;5095140;28;20019;-70
2021/03/12 08:43:14;;;;;;;13.75;6.20;;;9.60;32.40;;;;;;5080648;28;20039;-70
2021/03/12 08:45:49;;;;;;;8.57;5.80;;;9.60;32.20;;;;;;5096353;28;20023;-70
2021/03/12 08:48:21;;;;;;;8.05;6.10;;;9.50;32.30;;;;;;5095069;28;20031;-70
2021/03/12 08:50:58;;;;;;;8.57;5.90;;;9.50;32.50;;;;;;5094797;28;20027;-70
2021/03/12 08:53:28;;;;;;;9.57;6.55;;;9.40;32.50;;;;;;5078185;28;20146;-70
2021/03/12 08:55:59;;;;;;;10.20;5.72;;;9.30;32.80;;;;;;5094884;28;20043;-70
2021/03/12 08:58:35;;;;;;;7.40;5.70;;;9.30;32.60;;;;;;5079419;28;20027;-70
2021/03/12 09:01:12;;;;;;;7.70;6.45;;;9.20;32.70;;;;;;5095177;28;20066;-71
2021/03/12 09:03:47;;;;;;;8.20;5.95;;;9.10;32.80;;;;;;5078613;28;20024;-69
2021/03/12 09:06:45;;;;;;;7.63;5.57;;;9.10;33.00;;;;;;5066096;28;20071;-74
2021/03/12 09:09:27;;;;;;;8.32;5.55;;;9.20;36.00;;;;;;5094343;28;20145;-74
2021/03/12 09:11:58;;;;;;;8.00;5.78;;;9.30;35.80;;;;;;5112864;28;20078;-73
2021/03/12 09:14:40;;;;;;;9.00;5.18;;;9.20;34.50;;;;;;5095051;28;20020;-73
2021/03/12 09:17:08;;;;;;;8.40;5.30;;;9.20;34.20;;;;;;5094963;28;20375;-73
2021/03/12 09:19:36;;;;;;;7.70;5.70;;;9.10;34.00;;;;;;5094688;28;20055;-74
2021/03/12 09:22:08;;;;;;;7.22;5.03;;;9.10;33.40;;;;;;5094720;28;20054;-74
2021/03/12 09:24:53;;;;;;;9.77;5.60;;;9.00;33.10;;;;;;5094485;28;20019;-74
2021/03/12 09:27:25;;;;;;;8.40;6.40;;;9.00;33.10;;;;;;5094742;28;20038;-73
2021/03/12 09:30:00;;;;;;;8.93;5.65;;;9.00;33.50;;;;;;5094788;28;20065;-73
2021/03/12 09:32:40;;;;;;;10.10;5.95;;;9.00;34.00;;;;;;5094357;28;20089;-74
2021/03/12 09:35:18;;;;;;;8.82;5.38;;;9.00;34.20;;;;;;5094700;28;20023;-75
2021/03/12 09:37:48;;;;;;;7.43;4.97;;;9.00;34.50;;;;;;5078479;28;20023;-68
2021/03/12 09:40:39;;;;;;;9.32;5.75;;;9.00;34.40;;;;;;5094455;28;20016;-68
2021/03/12 09:43:17;;;;;;;8.60;5.57;;;8.90;34.10;;;;;;5094244;28;20134;-67
2021/03/12 09:45:51;;;;;;;9.48;5.25;;;8.90;34.10;;;;;;5094620;28;20066;-67
2021/03/12 09:48:32;;;;;;;8.77;5.85;;;8.90;34.00;;;;;;5094120;28;20126;-67
2021/03/12 09:51:03;;;;;;;6.50;5.15;;;8.80;33.90;;;;;;5078276;28;20031;-67
2021/03/12 09:53:33;;;;;;;10.05;5.40;;;8.90;33.90;;;;;;5094232;28;20024;-67
2021/03/12 09:56:23;;;;;;;10.18;5.93;;;8.90;33.60;;;;;;5100499;28;20085;-67
2021/03/12 09:58:59;;;;;;;7.63;5.07;;;8.80;33.40;;;;;;5098289;28;20031;-67
2021/03/12 10:01:43;;;;;;;7.50;5.35;;;8.80;33.20;;;;;;5116638;28;20057;-67
2021/03/12 10:04:43;;;;;;;8.60;5.32;;;8.70;33.00;;;;;;5071199;28;20035;-67
2021/03/12 10:07:38;;;;;;;7.13;5.18;;;8.70;32.80;;;;;;5097765;28;20115;-67
2021/03/12 10:10:21;;;;;;;12.30;4.90;;;8.70;32.90;;;;;;5081138;28;20061;-67
2021/03/12 10:12:49;;;;;;;6.47;4.80;;;8.70;33.00;;;;;;5097662;28;20092;-67
2021/03/12 10:15:28;;;;;;;8.05;4.93;;;8.60;32.90;;;;;;5115853;28;20179;-67
2021/03/12 10:18:03;;;;;;;8.15;4.45;;;8.60;33.10;;;;;;5115869;28;20076;-67
2021/03/12 10:20:35;;;;;;;7.18;4.30;;;8.70;33.00;;;;;;5097716;28;20030;-67
2021/03/12 10:23:05;;;;;;;6.43;5.03;;;8.70;32.90;;;;;;5097931;28;20024;-69
2021/03/12 10:25:32;;;;;;;7.28;5.28;;;8.70;32.60;;;;;;5115975;28;20387;-67
2021/03/12 10:28:25;;;;;;;6.38;4.10;;;8.60;32.40;;;;;;5097430;28;20487;-67
2021/03/12 10:31:00;;;;;;;5.85;4.03;;;8.70;32.40;;;;;;5115698;28;20036;-67
2021/03/12 10:33:28;;;;;;;6.65;4.13;;;8.60;32.10;;;;;;5079999;28;20566;-68
2021/03/12 10:35:57;;;;;;;6.38;4.45;;;8.60;32.10;;;;;;5115528;28;20448;-67
2021/03/12 10:38:28;;;;;;;6.10;4.18;;;8.50;31.90;;;;;;5115505;28;20073;-67
2021/03/12 10:41:05;;;;;;;7.35;4.53;;;8.50;31.80;;;;;;5097274;28;20028;-66
2021/03/12 10:43:34;;;;;;;5.65;4.45;;;8.50;31.80;;;;;;5080728;28;20460;-65
2021/03/12 10:46:05;;;;;;;5.03;3.97;;;8.40;31.60;;;;;;5097268;28;20038;-66
2021/03/12 10:48:40;;;;;;;5.70;4.32;;;8.50;31.30;;;;;;5081197;28;20032;-67
2021/03/12 10:51:07;;;;;;;5.57;3.70;;;8.40;31.00;;;;;;5097346;28;20089;-68
2021/03/12 10:53:53;;;;;;;6.35;3.85;;;8.40;31.30;;;;;;5097082;28;20022;-67
2021/03/12 10:56:19;;;;;;;;;;;8.40;31.40;;;;;;5097543;28;20027;-67
2021/03/12 10:58:47;;;;;;;8.63;4.07;;;8.30;31.10;;;;;;5114944;28;19953;-67
2021/03/12 11:01:20;;;;;;;6.05;4.03;;;8.40;31.20;;;;;;5096982;28;20118;-68
2021/03/12 11:03:46;;;;;;;4.75;3.45;;;8.40;31.20;;;;;;5096788;28;20015;-67
2021/03/12 11:06:18;;;;;;;6.75;3.90;;;8.40;31.10;;;;;;5096603;28;20031;-67
2021/03/12 11:08:45;;;;;;;5.25;3.38;;;8.30;30.90;;;;;;5096689;28;20044;-67
2021/03/12 11:11:14;;;;;;;7.68;3.95;;;8.30;30.80;;;;;;5113594;27;20377;-67
2021/03/12 11:13:43;;;;;;;5.13;3.83;;;8.30;30.70;;;;;;5096579;28;20084;-68
2021/03/12 11:16:09;;;;;;;4.10;3.25;;;8.40;30.70;;;;;;5114895;28;20020;-67
2021/03/12 11:18:36;;;;;;;5.28;3.50;;;8.30;30.50;;;;;;5115046;28;20509;-66
2021/03/12 11:21:07;;;;;;;5.60;3.10;;;8.30;30.30;;;;;;5096502;28;20357;-66
2021/03/12 11:23:33;;;;;;;6.38;3.78;;;8.30;30.30;;;;;;5096998;28;20041;-67
2021/03/12 11:26:00;;;;;;;4.20;2.80;;;8.30;30.30;;;;;;5114445;28;20477;-68
2021/03/12 11:28:27;;;;;;;6.85;3.20;;;8.30;30.30;;;;;;5079311;28;20176;-67
2021/03/12 11:30:58;;;;;;;4.10;2.90;;;8.30;32.50;;;;;;5096182;28;20036;-67
2021/03/12 11:33:25;;;;;;;5.32;2.95;;;8.40;32.10;;;;;;5114545;28;20112;-67
2021/03/12 11:35:53;;;;;;;4.65;3.08;;;8.40;31.20;;;;;;5079275;28;20131;-67
2021/03/12 11:38:20;;;;;;;8.35;3.58;;;8.40;30.80;;;;;;5114139;28;20058;-66
2021/03/12 11:40:47;;;;;;;3.78;3.00;;;8.30;30.80;;;;;;5096914;28;20606;-69
2021/03/12 11:43:14;;;;;;;6.03;3.60;;;8.30;31.10;;;;;;5096137;28;20054;-69
2021/03/12 11:45:40;;;;;;;7.85;3.75;;;8.50;32.70;;;;;;5096459;28;20038;-69
2021/03/12 11:48:06;;;;;;;6.05;3.78;;;8.70;34.50;;;;;;5114031;28;20486;-69
2021/03/12 11:50:34;;;;;;;5.78;3.88;;;9.00;36.00;;;;;;5096071;28;20052;-68
2021/03/12 11:53:01;;;;;;;6.80;3.97;;;9.10;37.80;;;;;;5113769;28;20118;-68
2021/03/12 11:55:27;;;;;;;6.88;4.13;;;9.20;37.30;;;;;;5114155;28;20022;-67
2021/03/12 11:57:53;;;;;;;7.93;4.53;;;9.00;35.10;;;;;;5096189;28;20084;-68
2021/03/12 12:00:20;;;;;;;7.25;4.43;;;8.80;33.70;;;;;;5096184;28;20418;-67
2021/03/12 12:02:46;;;;;;;7.05;4.28;;;8.70;33.80;;;;;;5113797;28;20027;-67
2021/03/12 12:05:13;;;;;;;7.85;4.40;;;8.50;32.50;;;;;;5113699;28;20031;-72
2021/03/12 12:07:39;;;;;;;6.82;3.97;;;8.40;33.10;;;;;;5095135;28;20055;-69
2021/03/12 12:10:07;;;;;;;6.68;4.00;;;8.40;33.10;;;;;;5095801;28;20028;-71
2021/03/12 12:12:34;;;;;;;5.18;3.53;;;8.30;32.20;;;;;;5113821;28;20110;-69
2021/03/12 12:15:00;;;;;;;5.68;3.45;;;8.40;33.50;;;;;;5095653;28;20378;-76
2021/03/12 12:17:26;;;;;;;5.82;3.50;;;8.60;37.40;;;;;;5078193;28;20031;-76
2021/03/12 12:19:52;;;;;;;6.30;3.92;;;8.80;38.80;;;;;;5113566;28;20363;-74
2021/03/12 12:22:18;;;;;;;3.92;3.00;;;9.00;37.90;;;;;;5113656;28;20145;-74
2021/03/12 12:24:44;;;;;;;5.57;3.67;;;8.90;35.20;;;;;;5113385;28;20042;-74
2021/03/12 12:27:12;;;;;;;5.75;3.70;;;8.80;33.40;;;;;;5113888;28;20016;-75
2021/03/12 12:29:38;;;;;;;4.95;3.17;;;8.60;32.20;;;;;;5095589;28;20367;-74
2021/03/12 12:32:05;;;;;;;5.90;3.90;;;8.40;31.80;;;;;;5113510;28;20034;-75
2021/03/12 12:34:31;;;;;;;4.60;3.15;;;8.30;31.70;;;;;;5095059;28;20030;-74
2021/03/12 12:36:57;;;;;;;4.32;3.60;;;8.20;31.30;;;;;;5113103;28;20031;-74
2021/03/12 12:39:24;;;;;;;6.75;3.75;;;8.10;31.30;;;;;;5113182;28;20028;-73
2021/03/12 12:41:50;;;;;;;6.22;3.25;;;8.00;31.60;;;;;;5095484;28;20031;-73
2021/03/12 12:44:17;;;;;;;4.43;3.20;;;8.10;32.30;;;;;;5095119;28;20406;-74
2021/03/12 12:46:44;;;;;;;8.18;3.60;;;7.90;31.70;;;;;;5113005;28;20028;-74
2021/03/12 12:49:11;;;;;;;7.40;3.03;;;7.80;31.40;;;;;;5095022;28;20031;-73
2021/03/12 12:51:37;;;;;;;5.65;3.20;;;7.80;31.40;;;;;;5113059;28;20042;-73
2021/03/12 12:54:04;;;;;;;6.93;3.40;;;7.70;31.20;;;;;;5095149;28;20062;-73
2021/03/12 12:56:30;;;;;;;6.93;4.13;;;7.60;31.30;;;;;;5113248;28;20083;-74
2021/03/12 12:58:58;;;;;;;7.55;3.80;;;7.70;31.60;;;;;;5113195;28;20145;-72
2021/03/12 13:01:24;;;;;;;6.10;3.95;;;7.60;31.60;;;;;;5078178;28;20024;-75
2021/03/12 13:03:50;;;;;;;6.45;3.60;;;7.50;31.60;;;;;;5094992;28;20015;-76
2021/03/12 13:06:16;;;;;;;7.15;4.00;;;7.50;31.20;;;;;;5112850;28;20532;-73
2021/03/12 13:08:42;;;;;;;4.80;3.42;;;7.40;31.00;;;;;;5113193;28;20048;-70
2021/03/12 13:11:09;;;;;;;7.03;3.60;;;7.30;30.80;;;;;;5112943;28;20460;-71
2021/03/12 13:13:35;;;;;;;7.78;3.67;;;7.20;30.70;;;;;;5113090;28;20124;-72
2021/03/12 13:16:01;;;;;;;5.20;3.42;;;7.20;30.50;;;;;;5112858;28;20024;-72
2021/03/12 13:18:29;;;;;;;4.95;3.55;;;7.10;30.50;;;;;;5112968;28;20027;-72
2021/03/12 13:21:06;;;;;;;5.15;3.28;;;7.10;30.40;;;;;;5112701;28;20097;-74
2021/03/12 13:23:34;;;;;;;5.38;3.53;;;7.10;30.40;;;;;;5094797;28;20041;-73